sensor_id;sensor_type;location;lat;lon;timestamp;temperature;humidity
66026;SHT31;56312;55.976;37.136;2024-03-07T00:03:07;-10.25;63.08
66026;SHT31;56312;55.976;37.136;2024-03-07T00:08:14;-10.35;62.99
66026;SHT31;56312;55.976;37.136;2024-03-07T00:13:19;-10.41;62.94
66026;SHT31;56312;55.976;37.136;2024-03-07T00:18:26;-10.42;62.99
66026;SHT31;56312;55.976;37.136;2024-03-07T00:23:33;-10.42;63.03
66026;SHT31;56312;55.976;37.136;2024-03-07T00:28:39;-10.49;63.06
66026;SHT31;56312;55.976;37.136;2024-03-07T00:33:45;-10.42;63.17
66026;SHT31;56312;55.976;37.136;2024-03-07T00:38:54;-10.52;63.06
66026;SHT31;56312;55.976;37.136;2024-03-07T00:44:00;-10.55;63.23
66026;SHT31;56312;55.976;37.136;2024-03-07T00:49:06;-10.57;63.25
66026;SHT31;56312;55.976;37.136;2024-03-07T00:54:12;-10.60;63.23
66026;SHT31;56312;55.976;37.136;2024-03-07T00:59:19;-10.63;63.27
66026;SHT31;56312;55.976;37.136;2024-03-07T01:04:25;-10.66;63.36
66026;SHT31;56312;55.976;37.136;2024-03-07T01:09:36;-10.67;63.31
66026;SHT31;56312;55.976;37.136;2024-03-07T01:14:43;-10.72;63.32
66026;SHT31;56312;55.976;37.136;2024-03-07T01:19:49;-10.77;63.36
66026;SHT31;56312;55.976;37.136;2024-03-07T01:24:54;-10.84;63.35
66026;SHT31;56312;55.976;37.136;2024-03-07T01:30:00;-10.87;63.36
66026;SHT31;56312;55.976;37.136;2024-03-07T01:35:07;-10.87;63.43
66026;SHT31;56312;55.976;37.136;2024-03-07T01:40:15;-10.87;63.43
66026;SHT31;56312;55.976;37.136;2024-03-07T01:45:21;-10.83;63.55
66026;SHT31;56312;55.976;37.136;2024-03-07T01:50:27;-10.80;63.53
66026;SHT31;56312;55.976;37.136;2024-03-07T01:55:33;-10.83;63.46
66026;SHT31;56312;55.976;37.136;2024-03-07T02:00:39;-10.83;63.58
66026;SHT31;56312;55.976;37.136;2024-03-07T02:05:45;-10.83;63.53
66026;SHT31;56312;55.976;37.136;2024-03-07T02:10:51;-10.85;63.49
66026;SHT31;56312;55.976;37.136;2024-03-07T02:15:57;-10.90;63.41
66026;SHT31;56312;55.976;37.136;2024-03-07T02:21:07;-10.87;63.56
66026;SHT31;56312;55.976;37.136;2024-03-07T02:26:14;-10.81;63.50
66026;SHT31;56312;55.976;37.136;2024-03-07T02:31:20;-10.84;63.54
66026;SHT31;56312;55.976;37.136;2024-03-07T02:36:33;-10.85;63.56
66026;SHT31;56312;55.976;37.136;2024-03-07T02:41:39;-10.84;63.59
66026;SHT31;56312;55.976;37.136;2024-03-07T02:46:45;-10.84;63.54
66026;SHT31;56312;55.976;37.136;2024-03-07T02:51:52;-10.85;63.56
66026;SHT31;56312;55.976;37.136;2024-03-07T02:56:58;-10.88;63.58
66026;SHT31;56312;55.976;37.136;2024-03-07T03:02:04;-10.79;63.74
66026;SHT31;56312;55.976;37.136;2024-03-07T03:07:11;-10.62;63.73
66026;SHT31;56312;55.976;37.136;2024-03-07T03:12:17;-10.52;63.61
66026;SHT31;56312;55.976;37.136;2024-03-07T03:17:23;-10.48;63.58
66026;SHT31;56312;55.976;37.136;2024-03-07T03:22:29;-10.48;63.51
66026;SHT31;56312;55.976;37.136;2024-03-07T03:27:36;-10.44;63.56
66026;SHT31;56312;55.976;37.136;2024-03-07T03:32:42;-10.38;63.62
66026;SHT31;56312;55.976;37.136;2024-03-07T03:37:48;-10.31;63.58
66026;SHT31;56312;55.976;37.136;2024-03-07T03:42:54;-10.26;63.52
66026;SHT31;56312;55.976;37.136;2024-03-07T03:48:00;-10.28;63.46
66026;SHT31;56312;55.976;37.136;2024-03-07T03:53:06;-10.31;63.50
66026;SHT31;56312;55.976;37.136;2024-03-07T03:58:13;-10.28;63.51
66026;SHT31;56312;55.976;37.136;2024-03-07T04:03:19;-10.20;63.47
66026;SHT31;56312;55.976;37.136;2024-03-07T04:08:25;-10.21;63.36
66026;SHT31;56312;55.976;37.136;2024-03-07T04:13:31;-10.22;63.26
66026;SHT31;56312;55.976;37.136;2024-03-07T04:18:37;-10.17;63.33
66026;SHT31;56312;55.976;37.136;2024-03-07T04:23:43;-10.04;63.35
66026;SHT31;56312;55.976;37.136;2024-03-07T04:28:52;-10.04;63.20
66026;SHT31;56312;55.976;37.136;2024-03-07T04:33:58;-9.90;63.24
66026;SHT31;56312;55.976;37.136;2024-03-07T04:39:04;-9.67;63.30
66026;SHT31;56312;55.976;37.136;2024-03-07T04:44:10;-8.93;63.62
66026;SHT31;56312;55.976;37.136;2024-03-07T04:49:16;-7.89;63.49
66026;SHT31;56312;55.976;37.136;2024-03-07T04:54:23;-7.00;63.15
66026;SHT31;56312;55.976;37.136;2024-03-07T04:59:29;-6.18;62.72
66026;SHT31;56312;55.976;37.136;2024-03-07T05:04:35;-5.39;62.51
66026;SHT31;56312;55.976;37.136;2024-03-07T05:09:41;-4.81;62.25
66026;SHT31;56312;55.976;37.136;2024-03-07T05:14:47;-4.52;61.93
66026;SHT31;56312;55.976;37.136;2024-03-07T05:19:53;-4.31;61.45
66026;SHT31;56312;55.976;37.136;2024-03-07T05:24:59;-4.10;61.32
66026;SHT31;56312;55.976;37.136;2024-03-07T05:30:05;-3.60;61.31
66026;SHT31;56312;55.976;37.136;2024-03-07T05:35:11;-3.19;61.05
66026;SHT31;56312;55.976;37.136;2024-03-07T05:40:17;-2.76;60.93
66026;SHT31;56312;55.976;37.136;2024-03-07T05:45:23;-2.21;60.59
66026;SHT31;56312;55.976;37.136;2024-03-07T05:50:29;-1.83;60.24
66026;SHT31;56312;55.976;37.136;2024-03-07T05:55:35;-0.94;60.18
66026;SHT31;56312;55.976;37.136;2024-03-07T06:00:43;-0.28;60.12
66026;SHT31;56312;55.976;37.136;2024-03-07T06:05:52;0.23;59.77
66026;SHT31;56312;55.976;37.136;2024-03-07T06:10:59;0.69;59.42
66026;SHT31;56312;55.976;37.136;2024-03-07T06:16:05;1.15;59.16
66026;SHT31;56312;55.976;37.136;2024-03-07T06:21:13;1.44;58.93
66026;SHT31;56312;55.976;37.136;2024-03-07T06:26:19;1.71;58.74
66026;SHT31;56312;55.976;37.136;2024-03-07T06:31:42;2.09;58.58
66026;SHT31;56312;55.976;37.136;2024-03-07T06:36:49;2.62;58.57
66026;SHT31;56312;55.976;37.136;2024-03-07T06:41:55;3.08;58.62
66026;SHT31;56312;55.976;37.136;2024-03-07T06:47:01;3.49;58.19
66026;SHT31;56312;55.976;37.136;2024-03-07T06:52:07;3.66;58.03
66026;SHT31;56312;55.976;37.136;2024-03-07T06:57:17;3.92;58.12
66026;SHT31;56312;55.976;37.136;2024-03-07T07:02:23;4.44;58.03
66026;SHT31;56312;55.976;37.136;2024-03-07T07:07:28;4.87;57.88
66026;SHT31;56312;55.976;37.136;2024-03-07T07:12:35;5.25;57.87
66026;SHT31;56312;55.976;37.136;2024-03-07T07:17:42;5.35;57.69
66026;SHT31;56312;55.976;37.136;2024-03-07T07:22:50;5.64;57.11
66026;SHT31;56312;55.976;37.136;2024-03-07T07:27:58;5.59;57.35
66026;SHT31;56312;55.976;37.136;2024-03-07T07:33:04;5.94;57.44
66026;SHT31;56312;55.976;37.136;2024-03-07T07:38:10;6.32;57.27
66026;SHT31;56312;55.976;37.136;2024-03-07T07:43:18;6.50;57.08
66026;SHT31;56312;55.976;37.136;2024-03-07T07:48:24;6.04;56.91
66026;SHT31;56312;55.976;37.136;2024-03-07T07:53:30;6.15;56.87
66026;SHT31;56312;55.976;37.136;2024-03-07T07:58:36;5.86;56.53
66026;SHT31;56312;55.976;37.136;2024-03-07T08:03:44;5.74;56.60
66026;SHT31;56312;55.976;37.136;2024-03-07T08:08:50;5.86;56.54
66026;SHT31;56312;55.976;37.136;2024-03-07T08:13:56;5.67;56.25
66026;SHT31;56312;55.976;37.136;2024-03-07T08:19:01;5.11;56.21
66026;SHT31;56312;55.976;37.136;2024-03-07T08:24:09;4.71;55.94
66026;SHT31;56312;55.976;37.136;2024-03-07T08:29:16;4.40;56.14
66026;SHT31;56312;55.976;37.136;2024-03-07T08:34:22;4.26;56.08
66026;SHT31;56312;55.976;37.136;2024-03-07T08:39:28;3.98;56.10
66026;SHT31;56312;55.976;37.136;2024-03-07T08:44:34;3.74;55.99
66026;SHT31;56312;55.976;37.136;2024-03-07T08:49:40;3.31;55.91
66026;SHT31;56312;55.976;37.136;2024-03-07T08:54:45;3.19;56.26
66026;SHT31;56312;55.976;37.136;2024-03-07T08:59:52;3.02;56.20
66026;SHT31;56312;55.976;37.136;2024-03-07T09:04:58;2.70;56.14
66026;SHT31;56312;55.976;37.136;2024-03-07T09:10:04;2.37;56.33
66026;SHT31;56312;55.976;37.136;2024-03-07T09:15:12;2.40;56.71
66026;SHT31;56312;55.976;37.136;2024-03-07T09:20:18;2.36;56.57
66026;SHT31;56312;55.976;37.136;2024-03-07T09:25:25;2.34;56.64
66026;SHT31;56312;55.976;37.136;2024-03-07T09:30:31;2.27;56.68
66026;SHT31;56312;55.976;37.136;2024-03-07T09:35:37;2.16;56.72
66026;SHT31;56312;55.976;37.136;2024-03-07T09:40:46;2.16;56.85
66026;SHT31;56312;55.976;37.136;2024-03-07T09:45:52;2.06;56.75
66026;SHT31;56312;55.976;37.136;2024-03-07T09:50:59;2.03;56.78
66026;SHT31;56312;55.976;37.136;2024-03-07T09:56:08;1.92;56.86
66026;SHT31;56312;55.976;37.136;2024-03-07T10:01:25;1.94;56.87
66026;SHT31;56312;55.976;37.136;2024-03-07T10:06:32;1.89;56.87
66026;SHT31;56312;55.976;37.136;2024-03-07T10:11:38;1.92;56.95
66026;SHT31;56312;55.976;37.136;2024-03-07T10:16:43;1.99;56.93
66026;SHT31;56312;55.976;37.136;2024-03-07T10:21:49;1.96;56.89
66026;SHT31;56312;55.976;37.136;2024-03-07T10:26:57;1.96;56.86
66026;SHT31;56312;55.976;37.136;2024-03-07T10:32:11;1.95;56.93
66026;SHT31;56312;55.976;37.136;2024-03-07T10:37:18;1.96;57.00
66026;SHT31;56312;55.976;37.136;2024-03-07T10:42:28;1.99;57.05
66026;SHT31;56312;55.976;37.136;2024-03-07T10:47:37;1.98;56.99
66026;SHT31;56312;55.976;37.136;2024-03-07T10:58:02;1.98;56.72
66026;SHT31;56312;55.976;37.136;2024-03-07T11:03:13;1.96;56.91
66026;SHT31;56312;55.976;37.136;2024-03-07T11:08:20;2.02;56.86
66026;SHT31;56312;55.976;37.136;2024-03-07T11:13:27;2.07;56.86
66026;SHT31;56312;55.976;37.136;2024-03-07T11:18:34;2.12;56.73
66026;SHT31;56312;55.976;37.136;2024-03-07T11:23:44;2.15;56.77
66026;SHT31;56312;55.976;37.136;2024-03-07T11:28:50;2.19;56.78
66026;SHT31;56312;55.976;37.136;2024-03-07T11:34:16;2.26;56.69
66026;SHT31;56312;55.976;37.136;2024-03-07T11:44:48;2.32;56.73
66026;SHT31;56312;55.976;37.136;2024-03-07T11:49:55;2.32;56.64
66026;SHT31;56312;55.976;37.136;2024-03-07T11:55:03;2.33;56.60
66026;SHT31;56312;55.976;37.136;2024-03-07T12:00:10;2.40;56.44
66026;SHT31;56312;55.976;37.136;2024-03-07T12:05:16;2.38;56.45
66026;SHT31;56312;55.976;37.136;2024-03-07T12:10:22;2.37;56.36
66026;SHT31;56312;55.976;37.136;2024-03-07T12:15:30;2.40;56.37
66026;SHT31;56312;55.976;37.136;2024-03-07T12:20:38;2.33;56.31
66026;SHT31;56312;55.976;37.136;2024-03-07T12:25:45;2.29;56.31
66026;SHT31;56312;55.976;37.136;2024-03-07T12:30:55;2.25;56.32
66026;SHT31;56312;55.976;37.136;2024-03-07T12:36:02;2.19;56.20
66026;SHT31;56312;55.976;37.136;2024-03-07T12:41:11;2.20;56.19
66026;SHT31;56312;55.976;37.136;2024-03-07T12:46:20;2.15;56.18
66026;SHT31;56312;55.976;37.136;2024-03-07T12:51:27;2.12;56.44
66026;SHT31;56312;55.976;37.136;2024-03-07T12:56:33;2.07;56.26
66026;SHT31;56312;55.976;37.136;2024-03-07T13:01:40;1.94;56.19
66026;SHT31;56312;55.976;37.136;2024-03-07T13:06:50;1.82;56.31
66026;SHT31;56312;55.976;37.136;2024-03-07T13:11:57;1.78;56.08
66026;SHT31;56312;55.976;37.136;2024-03-07T13:17:06;1.71;55.98
66026;SHT31;56312;55.976;37.136;2024-03-07T13:22:11;1.74;55.96
66026;SHT31;56312;55.976;37.136;2024-03-07T13:27:18;1.67;55.99
66026;SHT31;56312;55.976;37.136;2024-03-07T13:32:31;1.58;55.85
66026;SHT31;56312;55.976;37.136;2024-03-07T13:37:37;1.52;55.98
66026;SHT31;56312;55.976;37.136;2024-03-07T13:42:42;1.48;56.15
66026;SHT31;56312;55.976;37.136;2024-03-07T13:47:49;1.43;56.04
66026;SHT31;56312;55.976;37.136;2024-03-07T13:52:56;1.37;55.98
66026;SHT31;56312;55.976;37.136;2024-03-07T13:58:37;1.33;55.92
66026;SHT31;56312;55.976;37.136;2024-03-07T14:15:28;1.02;55.98
66026;SHT31;56312;55.976;37.136;2024-03-07T14:20:53;0.88;56.06
66026;SHT31;56312;55.976;37.136;2024-03-07T14:26:50;0.76;56.15
66026;SHT31;56312;55.976;37.136;2024-03-07T14:32:00;0.50;56.17
66026;SHT31;56312;55.976;37.136;2024-03-07T14:37:23;0.30;56.21
66026;SHT31;56312;55.976;37.136;2024-03-07T14:42:30;0.20;56.50
66026;SHT31;56312;55.976;37.136;2024-03-07T14:47:36;0.13;56.52
66026;SHT31;56312;55.976;37.136;2024-03-07T14:52:42;0.02;56.57
66026;SHT31;56312;55.976;37.136;2024-03-07T14:57:50;-0.07;56.56
66026;SHT31;56312;55.976;37.136;2024-03-07T15:02:56;-0.17;56.75
66026;SHT31;56312;55.976;37.136;2024-03-07T15:08:02;-0.26;57.04
66026;SHT31;56312;55.976;37.136;2024-03-07T15:13:10;-0.32;57.25
66026;SHT31;56312;55.976;37.136;2024-03-07T15:18:18;-0.43;57.46
66026;SHT31;56312;55.976;37.136;2024-03-07T15:23:24;-0.59;57.79
66026;SHT31;56312;55.976;37.136;2024-03-07T15:28:30;-0.74;57.99
66026;SHT31;56312;55.976;37.136;2024-03-07T15:33:36;-0.86;58.23
66026;SHT31;56312;55.976;37.136;2024-03-07T15:38:42;-0.96;58.50
66026;SHT31;56312;55.976;37.136;2024-03-07T15:43:48;-1.03;58.75
66026;SHT31;56312;55.976;37.136;2024-03-07T15:48:54;-1.11;58.92
66026;SHT31;56312;55.976;37.136;2024-03-07T15:53:59;-1.19;59.16
66026;SHT31;56312;55.976;37.136;2024-03-07T15:59:06;-1.28;59.29
66026;SHT31;56312;55.976;37.136;2024-03-07T16:04:12;-1.36;59.45
66026;SHT31;56312;55.976;37.136;2024-03-07T16:09:18;-1.45;59.66
66026;SHT31;56312;55.976;37.136;2024-03-07T16:14:28;-1.51;59.78
66026;SHT31;56312;55.976;37.136;2024-03-07T16:19:34;-1.58;59.95
66026;SHT31;56312;55.976;37.136;2024-03-07T16:24:43;-1.66;60.05
66026;SHT31;56312;55.976;37.136;2024-03-07T16:29:49;-1.70;60.20
66026;SHT31;56312;55.976;37.136;2024-03-07T16:34:55;-1.82;60.35
66026;SHT31;56312;55.976;37.136;2024-03-07T16:40:01;-1.87;60.48
66026;SHT31;56312;55.976;37.136;2024-03-07T16:45:11;-1.93;60.65
66026;SHT31;56312;55.976;37.136;2024-03-07T16:50:20;-2.00;60.79
66026;SHT31;56312;55.976;37.136;2024-03-07T16:55:26;-2.11;60.90
66026;SHT31;56312;55.976;37.136;2024-03-07T17:00:33;-2.21;60.98
66026;SHT31;56312;55.976;37.136;2024-03-07T17:05:40;-2.28;61.15
66026;SHT31;56312;55.976;37.136;2024-03-07T17:10:47;-2.32;61.27
66026;SHT31;56312;55.976;37.136;2024-03-07T17:15:53;-2.38;61.43
66026;SHT31;56312;55.976;37.136;2024-03-07T17:21:02;-2.44;61.49
66026;SHT31;56312;55.976;37.136;2024-03-07T17:26:08;-2.52;61.54
66026;SHT31;56312;55.976;37.136;2024-03-07T17:31:14;-2.58;61.68
66026;SHT31;56312;55.976;37.136;2024-03-07T17:36:20;-2.68;61.73
66026;SHT31;56312;55.976;37.136;2024-03-07T17:41:26;-2.80;61.71
66026;SHT31;56312;55.976;37.136;2024-03-07T17:46:32;-2.91;61.87
66026;SHT31;56312;55.976;37.136;2024-03-07T17:51:38;-3.00;62.05
66026;SHT31;56312;55.976;37.136;2024-03-07T17:56:43;-3.00;62.27
66026;SHT31;56312;55.976;37.136;2024-03-07T18:01:49;-3.01;62.36
66026;SHT31;56312;55.976;37.136;2024-03-07T18:06:55;-3.01;62.47
66026;SHT31;56312;55.976;37.136;2024-03-07T18:12:01;-2.96;62.62
66026;SHT31;56312;55.976;37.136;2024-03-07T18:17:07;-2.90;62.74
66026;SHT31;56312;55.976;37.136;2024-03-07T18:22:15;-2.77;62.83
66026;SHT31;56312;55.976;37.136;2024-03-07T18:27:22;-2.65;62.90
66026;SHT31;56312;55.976;37.136;2024-03-07T18:32:28;-2.50;62.93
66026;SHT31;56312;55.976;37.136;2024-03-07T18:37:34;-2.46;62.84
66026;SHT31;56312;55.976;37.136;2024-03-07T18:42:43;-2.44;62.87
66026;SHT31;56312;55.976;37.136;2024-03-07T18:47:51;-2.41;62.71
66026;SHT31;56312;55.976;37.136;2024-03-07T18:52:57;-2.39;62.78
66026;SHT31;56312;55.976;37.136;2024-03-07T18:58:03;-2.38;62.82
66026;SHT31;56312;55.976;37.136;2024-03-07T19:03:15;-2.37;62.81
66026;SHT31;56312;55.976;37.136;2024-03-07T19:08:21;-2.37;62.81
66026;SHT31;56312;55.976;37.136;2024-03-07T19:13:27;-2.37;62.81
66026;SHT31;56312;55.976;37.136;2024-03-07T19:18:40;-2.41;62.81
66026;SHT31;56312;55.976;37.136;2024-03-07T19:23:46;-2.41;62.91
66026;SHT31;56312;55.976;37.136;2024-03-07T19:28:51;-2.41;62.92
66026;SHT31;56312;55.976;37.136;2024-03-07T19:33:57;-2.44;62.95
66026;SHT31;56312;55.976;37.136;2024-03-07T19:39:04;-2.42;62.98
66026;SHT31;56312;55.976;37.136;2024-03-07T19:44:17;-2.39;63.02
66026;SHT31;56312;55.976;37.136;2024-03-07T19:49:23;-2.46;63.05
66026;SHT31;56312;55.976;37.136;2024-03-07T19:54:30;-2.46;63.05
66026;SHT31;56312;55.976;37.136;2024-03-07T19:59:36;-2.48;63.06
66026;SHT31;56312;55.976;37.136;2024-03-07T20:04:42;-2.50;63.12
66026;SHT31;56312;55.976;37.136;2024-03-07T20:09:49;-2.55;63.15
66026;SHT31;56312;55.976;37.136;2024-03-07T20:14:54;-2.63;63.22
66026;SHT31;56312;55.976;37.136;2024-03-07T20:20:00;-2.63;63.29
66026;SHT31;56312;55.976;37.136;2024-03-07T20:25:20;-2.62;63.31
66026;SHT31;56312;55.976;37.136;2024-03-07T20:30:26;-2.73;63.35
66026;SHT31;56312;55.976;37.136;2024-03-07T20:35:39;-2.76;63.37
66026;SHT31;56312;55.976;37.136;2024-03-07T20:40:45;-2.77;63.38
66026;SHT31;56312;55.976;37.136;2024-03-07T20:45:51;-2.83;63.35
66026;SHT31;56312;55.976;37.136;2024-03-07T20:50:56;-2.98;63.32
66026;SHT31;56312;55.976;37.136;2024-03-07T20:56:03;-3.18;63.35
66026;SHT31;56312;55.976;37.136;2024-03-07T21:01:09;-3.30;63.38
66026;SHT31;56312;55.976;37.136;2024-03-07T21:06:15;-3.42;63.37
66026;SHT31;56312;55.976;37.136;2024-03-07T21:11:25;-3.55;63.41
66026;SHT31;56312;55.976;37.136;2024-03-07T21:16:33;-3.83;63.32
66026;SHT31;56312;55.976;37.136;2024-03-07T21:21:39;-3.98;63.42
66026;SHT31;56312;55.976;37.136;2024-03-07T21:26:45;-4.01;63.53
66026;SHT31;56312;55.976;37.136;2024-03-07T21:31:51;-4.04;63.57
66026;SHT31;56312;55.976;37.136;2024-03-07T21:36:57;-4.15;63.57
66026;SHT31;56312;55.976;37.136;2024-03-07T21:42:03;-4.31;63.52
66026;SHT31;56312;55.976;37.136;2024-03-07T21:47:09;-4.51;63.49
66026;SHT31;56312;55.976;37.136;2024-03-07T21:52:19;-4.59;63.53
66026;SHT31;56312;55.976;37.136;2024-03-07T21:57:25;-4.69;63.60
66026;SHT31;56312;55.976;37.136;2024-03-07T22:02:31;-4.75;63.69
66026;SHT31;56312;55.976;37.136;2024-03-07T22:07:37;-4.84;63.79
66026;SHT31;56312;55.976;37.136;2024-03-07T22:12:43;-4.87;63.87
66026;SHT31;56312;55.976;37.136;2024-03-07T22:17:49;-4.96;63.88
66026;SHT31;56312;55.976;37.136;2024-03-07T22:22:57;-5.07;63.92
66026;SHT31;56312;55.976;37.136;2024-03-07T22:28:03;-5.11;64.00
66026;SHT31;56312;55.976;37.136;2024-03-07T22:33:09;-5.35;63.72
66026;SHT31;56312;55.976;37.136;2024-03-07T22:38:17;-5.63;63.80
66026;SHT31;56312;55.976;37.136;2024-03-07T22:43:25;-5.75;63.97
66026;SHT31;56312;55.976;37.136;2024-03-07T22:48:31;-5.79;64.09
66026;SHT31;56312;55.976;37.136;2024-03-07T22:53:36;-5.84;64.09
66026;SHT31;56312;55.976;37.136;2024-03-07T22:58:42;-5.89;64.17
66026;SHT31;56312;55.976;37.136;2024-03-07T23:03:48;-5.97;64.17
66026;SHT31;56312;55.976;37.136;2024-03-07T23:08:54;-6.14;64.08
66026;SHT31;56312;55.976;37.136;2024-03-07T23:14:00;-6.36;63.93
66026;SHT31;56312;55.976;37.136;2024-03-07T23:19:09;-6.48;64.04
66026;SHT31;56312;55.976;37.136;2024-03-07T23:24:15;-6.48;64.20
66026;SHT31;56312;55.976;37.136;2024-03-07T23:29:21;-6.42;64.46
66026;SHT31;56312;55.976;37.136;2024-03-07T23:34:27;-6.29;64.72
66026;SHT31;56312;55.976;37.136;2024-03-07T23:39:33;-6.14;64.83
66026;SHT31;56312;55.976;37.136;2024-03-07T23:44:38;-6.11;64.85
66026;SHT31;56312;55.976;37.136;2024-03-07T23:49:44;-6.05;65.00
66026;SHT31;56312;55.976;37.136;2024-03-07T23:54:51;-5.93;65.09
66026;SHT31;56312;55.976;37.136;2024-03-07T23:59:59;-5.90;65.02
